Time;durP1;ratioP1;P1;durP2;ratioP2;P2;SDS_P1;SDS_P2;PMS_P1;PMS_P2;Temp;Humidity;BMP_temperature;BMP_pressure;BME280_temperature;BME280_humidity;BME280_pressure;Samples;Min_cycle;Max_cycle;Signal;HPM_P1;HPM_P2
2022/04/21 00:00:26;;;;;;;5.93;5.27;;;;;3.90;93512.00;;;;7396096;19;20139;-71
2022/04/21 00:02:54;;;;;;;8.10;5.10;;;;;4.10;93514.00;;;;7395984;19;20125;-71
2022/04/21 00:05:28;;;;;;;8.33;5.77;;;;;4.10;93513.00;;;;7396852;19;20611;-71
2022/04/21 00:08:03;;;;;;;7.30;4.77;;;;;4.20;93503.00;;;;7396329;19;20136;-71
2022/04/21 00:10:31;;;;;;;6.17;5.10;;;;;4.20;93493.00;;;;7396360;19;20824;-71
2022/04/21 00:12:59;;;;;;;8.63;5.33;;;;;4.00;93490.00;;;;7396153;19;20164;-71
2022/04/21 00:15:32;;;;;;;6.63;5.30;;;;;4.00;93492.00;;;;7397287;19;20125;-71
2022/04/21 00:18:01;;;;;;;9.63;5.20;;;;;4.20;93495.00;;;;7395249;19;20266;-71
2022/04/21 00:20:28;;;;;;;8.70;5.30;;;;;4.00;93500.00;;;;7396061;19;20196;-71
2022/04/21 00:25:55;;;;;;;6.13;5.20;;;;;4.00;93493.00;;;;7398137;19;20176;-71
2022/04/21 00:28:29;;;;;;;8.17;5.97;;;;;3.90;93494.00;;;;7395601;19;20154;-71
2022/04/21 00:30:57;;;;;;;7.80;5.47;;;;;3.90;93485.00;;;;7395231;19;20137;-71
2022/04/21 00:33:25;;;;;;;7.53;5.30;;;;;3.80;93491.00;;;;7397103;19;20464;-71
2022/04/21 00:35:59;;;;;;;8.13;5.40;;;;;3.60;93492.00;;;;7397316;19;20133;-71
2022/04/21 00:38:27;;;;;;;11.40;5.77;;;;;3.40;93485.00;;;;7395467;19;20161;-71
2022/04/21 00:40:54;;;;;;;6.17;5.30;;;;;3.30;93491.00;;;;7393557;19;20136;-71
2022/04/21 00:43:30;;;;;;;6.17;5.23;;;;;3.20;93476.00;;;;7395588;19;20156;-70
2022/04/21 00:45:58;;;;;;;13.93;5.20;;;;;3.10;93482.00;;;;7397180;19;20133;-71
2022/04/21 00:48:28;;;;;;;7.53;5.70;;;;;2.90;93482.00;;;;7394438;19;20135;-71
2022/04/21 00:51:02;;;;;;;7.07;5.80;;;;;3.10;93478.00;;;;7393942;19;20144;-71
2022/04/21 00:53:30;;;;;;;7.27;5.47;;;;;3.10;93471.00;;;;7396244;19;20152;-70
2022/04/21 00:55:58;;;;;;;7.33;5.97;;;;;3.10;93464.00;;;;7394062;19;20123;-71
2022/04/21 00:58:33;;;;;;;7.40;5.43;;;;;3.00;93466.00;;;;7394546;19;20492;-72
2022/04/21 01:01:02;;;;;;;8.00;5.97;;;;;2.90;93467.00;;;;7394328;19;20133;-71
2022/04/21 01:03:30;;;;;;;7.23;5.57;;;;;2.90;93466.00;;;;7395036;19;20624;-70
2022/04/21 01:06:04;;;;;;;7.70;6.10;;;;;2.90;93465.00;;;;7394026;19;20199;-71
2022/04/21 01:08:32;;;;;;;9.80;6.00;;;;;2.80;93465.00;;;;7395357;19;20567;-71
2022/04/21 01:10:59;;;;;;;9.53;6.10;;;;;2.90;93474.00;;;;7392262;19;20164;-71
2022/04/21 01:13:34;;;;;;;8.83;5.50;;;;;2.70;93477.00;;;;7398115;19;20173;-71
2022/04/21 01:16:02;;;;;;;8.87;6.40;;;;;2.70;93474.00;;;;7394965;19;20652;-71
2022/04/21 01:18:30;;;;;;;9.40;6.83;;;;;2.80;93478.00;;;;7393976;19;20469;-72
2022/04/21 01:21:04;;;;;;;6.97;6.23;;;;;2.80;93474.00;;;;7395014;19;20160;-71
2022/04/21 01:23:32;;;;;;;8.67;5.87;;;;;2.70;93468.00;;;;7396004;19;20125;-71
2022/04/21 01:26:01;;;;;;;6.87;6.17;;;;;2.70;93471.00;;;;7390874;19;20177;-71
2022/04/21 01:28:43;;;;;;;7.40;6.50;;;;;2.80;93469.00;;;;7394425;19;20152;-71
2022/04/21 01:31:10;;;;;;;8.73;7.10;;;;;2.90;93466.00;;;;7394138;19;20136;-72
2022/04/21 01:33:44;;;;;;;9.13;7.30;;;;;3.00;93462.00;;;;7392728;19;20196;-71
2022/04/21 01:36:12;;;;;;;11.23;7.13;;;;;3.00;93450.00;;;;7392777;19;20129;-70
2022/04/21 01:41:32;;;;;;;8.00;6.43;;;;;2.60;93451.00;;;;7392672;19;20208;-71
2022/04/21 01:44:00;;;;;;;6.80;6.10;;;;;2.30;93445.00;;;;7392839;19;20121;-71
2022/04/21 01:46:27;;;;;;;7.50;5.63;;;;;2.10;93450.00;;;;7392108;19;20145;-72
2022/04/21 01:49:01;;;;;;;9.30;6.27;;;;;2.10;93453.00;;;;7394857;19;20442;-72
2022/04/21 01:51:29;;;;;;;7.97;6.20;;;;;2.00;93455.00;;;;7392542;19;20137;-71
2022/04/21 01:53:57;;;;;;;7.57;6.60;;;;;2.10;93452.00;;;;7395500;19;20145;-71
2022/04/21 01:56:31;;;;;;;10.20;7.80;;;;;2.20;93454.00;;;;7396106;19;20136;-71
2022/04/21 01:58:59;;;;;;;11.13;7.73;;;;;2.30;93451.00;;;;7388828;19;20132;-71
2022/04/21 02:01:27;;;;;;;8.50;7.63;;;;;2.40;93463.00;;;;7387559;19;20133;-72
2022/04/21 02:04:01;;;;;;;10.03;7.63;;;;;2.40;93449.00;;;;7391728;19;20618;-71
2022/04/21 02:06:29;;;;;;;8.63;7.60;;;;;2.40;93448.00;;;;7393527;19;20131;-72
2022/04/21 02:08:58;;;;;;;10.13;8.20;;;;;2.30;93449.00;;;;7396298;19;20607;-71
2022/04/21 02:11:32;;;;;;;9.43;8.20;;;;;2.50;93443.00;;;;7393406;19;20128;-71
2022/04/21 02:13:59;;;;;;;13.13;8.60;;;;;2.60;93439.00;;;;7391865;19;20141;-71
2022/04/21 02:16:27;;;;;;;9.93;8.30;;;;;2.50;93437.00;;;;7394277;19;20901;-71
2022/04/21 02:19:01;;;;;;;11.50;8.50;;;;;2.50;93436.00;;;;7393252;19;20153;-71
2022/04/21 02:21:29;;;;;;;12.23;9.67;;;;;2.40;93436.00;;;;7391874;19;20128;-71
2022/04/21 02:23:56;;;;;;;11.83;9.30;;;;;2.40;93443.00;;;;7396440;19;20161;-73
2022/04/21 02:26:37;;;;;;;11.07;9.57;;;;;2.40;93439.00;;;;7392144;19;20491;-71
2022/04/21 02:29:04;;;;;;;12.43;9.10;;;;;2.40;93433.00;;;;7391239;19;20600;-71
2022/04/21 02:31:38;;;;;;;11.67;9.53;;;;;2.20;93429.00;;;;7391251;19;21001;-71
2022/04/21 02:34:06;;;;;;;12.90;9.67;;;;;2.30;93440.00;;;;7391738;19;20165;-72
2022/04/21 02:36:33;;;;;;;11.07;9.57;;;;;2.50;93434.00;;;;7391281;19;20128;-72
2022/04/21 02:39:07;;;;;;;11.97;9.20;;;;;2.30;93427.00;;;;7390650;19;20213;-72
2022/04/21 02:41:38;;;;;;;11.97;9.53;;;;;2.30;93426.00;;;;7390059;19;20456;-72
2022/04/21 02:44:05;;;;;;;11.57;9.93;;;;;2.30;93432.00;;;;7392119;19;20618;-71
2022/04/21 02:46:39;;;;;;;10.53;8.93;;;;;2.20;93421.00;;;;7393583;19;20145;-71
2022/04/21 02:49:07;;;;;;;10.60;9.00;;;;;2.10;93418.00;;;;7391627;19;20133;-72
2022/04/21 02:51:35;;;;;;;10.97;9.53;;;;;2.00;93411.00;;;;7391740;19;20596;-71
2022/04/21 02:59:56;;;;;;;16.97;11.57;;;;;2.30;93411.00;;;;7391712;19;20125;-71
2022/04/21 03:02:24;;;;;;;13.03;11.47;;;;;2.20;93410.00;;;;7388641;19;20136;-71
2022/04/21 03:04:58;;;;;;;15.23;12.50;;;;;2.20;93408.00;;;;7390781;19;20144;-71
2022/04/21 03:07:26;;;;;;;14.27;12.23;;;;;2.20;93408.00;;;;7401188;19;20140;-72
2022/04/21 03:09:54;;;;;;;19.77;12.80;;;;;2.10;93402.00;;;;7394490;19;20152;-71
2022/04/21 03:12:28;;;;;;;18.73;13.67;;;;;2.20;93398.00;;;;7398748;19;20886;-71
2022/04/21 03:14:57;;;;;;;15.53;13.30;;;;;2.20;93400.00;;;;7399098;19;20586;-72
2022/04/21 03:17:25;;;;;;;17.90;15.20;;;;;2.50;93408.00;;;;7398115;19;20483;-71
2022/04/21 03:19:59;;;;;;;18.23;14.53;;;;;2.30;93408.00;;;;7398967;19;20121;-71
2022/04/21 03:25:33;;;;;;;19.67;13.93;;;;;2.20;93396.00;;;;7396702;19;20958;-71
2022/04/21 03:28:07;;;;;;;17.33;14.47;;;;;2.20;93395.00;;;;7397505;19;20156;-72
2022/04/21 03:30:41;;;;;;;16.97;14.83;;;;;2.10;93396.00;;;;7397731;19;20204;-71
2022/04/21 03:33:12;;;;;;;23.37;14.80;;;;;2.10;93395.00;;;;7397492;19;20156;-71
2022/04/21 03:35:39;;;;;;;19.87;16.00;;;;;2.00;93392.00;;;;7398309;19;20127;-71
2022/04/21 03:38:13;;;;;;;16.50;14.77;;;;;1.80;93395.00;;;;7401447;19;20172;-72
2022/04/21 03:40:41;;;;;;;18.43;15.90;;;;;1.80;93399.00;;;;7396386;19;20141;-71
2022/04/21 03:43:08;;;;;;;21.20;16.10;;;;;1.90;93394.00;;;;7394280;19;20134;-71
2022/04/21 03:45:42;;;;;;;19.97;15.40;;;;;1.90;93388.00;;;;7398757;19;20567;-71
2022/04/21 03:48:10;;;;;;;19.17;16.63;;;;;1.80;93382.00;;;;7397976;19;20142;-71
2022/04/21 03:50:38;;;;;;;20.07;17.03;;;;;1.70;93386.00;;;;7396196;19;20612;-71
2022/04/21 03:53:12;;;;;;;21.37;16.37;;;;;1.70;93393.00;;;;7397623;19;20137;-71
2022/04/21 03:55:40;;;;;;;20.67;15.47;;;;;1.50;93396.00;;;;7396252;19;20223;-73
2022/04/21 03:58:07;;;;;;;18.57;16.50;;;;;1.50;93391.00;;;;7397191;19;20148;-71
2022/04/21 04:00:41;;;;;;;21.40;17.80;;;;;1.60;93389.00;;;;7395942;19;20530;-71
2022/04/21 04:03:09;;;;;;;24.87;19.07;;;;;1.80;93388.00;;;;7393647;19;20149;-71
2022/04/21 04:05:36;;;;;;;24.87;18.73;;;;;2.00;93380.00;;;;7398264;19;20113;-71
2022/04/21 04:10:56;;;;;;;23.93;19.47;;;;;2.10;93383.00;;;;7393349;19;20168;-71
2022/04/21 04:13:30;;;;;;;29.17;19.77;;;;;2.10;93378.00;;;;7395586;19;20774;-71
2022/04/21 04:15:58;;;;;;;25.43;19.77;;;;;2.10;93382.00;;;;7396348;19;20129;-72
2022/04/21 04:18:25;;;;;;;25.27;19.37;;;;;2.20;93383.00;;;;7396415;19;20213;-71
2022/04/21 04:20:59;;;;;;;24.00;19.87;;;;;2.40;93398.00;;;;7395547;19;20472;-71
2022/04/21 04:23:27;;;;;;;26.53;21.67;;;;;2.60;93401.00;;;;7391028;19;20528;-72
2022/04/21 04:25:54;;;;;;;42.40;21.13;;;;;2.50;93407.00;;;;7394378;19;20158;-72
2022/04/21 04:28:36;;;;;;;22.53;19.47;;;;;2.40;93403.00;;;;7395635;19;20128;-71
2022/04/21 04:31:04;;;;;;;24.63;19.87;;;;;2.50;93394.00;;;;7395834;19;20152;-71
2022/04/21 04:33:38;;;;;;;23.67;19.60;;;;;2.60;93397.00;;;;7395066;19;20614;-71
2022/04/21 04:36:07;;;;;;;23.53;18.83;;;;;2.60;93395.00;;;;7396326;19;20156;-71
2022/04/21 04:38:34;;;;;;;27.47;19.20;;;;;2.50;93391.00;;;;7396630;19;20443;-72
2022/04/21 04:43:54;;;;;;;23.07;18.87;;;;;2.50;93376.00;;;;7393164;19;20151;-72
2022/04/21 04:46:37;;;;;;;23.63;18.67;;;;;2.50;93380.00;;;;7398831;19;20129;-73
2022/04/21 04:49:07;;;;;;;29.67;19.53;;;;;2.80;93387.00;;;;7397515;19;20652;-73
2022/04/21 04:51:43;;;;;;;21.53;19.23;;;;;2.80;93389.00;;;;7398769;19;20491;-72
2022/04/21 04:54:12;;;;;;;20.73;17.93;;;;;2.90;93381.00;;;;7396649;19;20131;-74
2022/04/21 04:56:42;;;;;;;22.00;19.23;;;;;2.80;93392.00;;;;7398544;19;20155;-74
2022/04/21 04:59:16;;;;;;;26.47;19.17;;;;;2.80;93384.00;;;;7396078;19;20615;-73
2022/04/21 05:01:48;;;;;;;20.10;17.57;;;;;3.00;93387.00;;;;7396867;19;20129;-73
2022/04/21 05:04:25;;;;;;;22.13;18.10;;;;;3.20;93384.00;;;;7396731;19;20143;-73
2022/04/21 05:06:57;;;;;;;20.83;18.10;;;;;3.30;93386.00;;;;7395054;19;20643;-73
2022/04/21 05:09:31;;;;;;;21.90;18.23;;;;;3.30;93385.00;;;;7394489;19;20144;-73
2022/04/21 05:11:59;;;;;;;23.77;17.87;;;;;3.40;93386.00;;;;7391233;19;20199;-74
2022/04/21 05:14:27;;;;;;;20.93;17.80;;;;;3.60;93371.00;;;;7399159;19;20599;-73
2022/04/21 05:17:01;;;;;;;21.53;17.47;;;;;3.70;93376.00;;;;7395233;19;20516;-73
2022/04/21 05:19:29;;;;;;;23.47;17.97;;;;;4.00;93373.00;;;;7394679;19;20149;-73
2022/04/21 05:22:02;;;;;;;18.17;16.27;;;;;4.20;93364.00;;;;7396263;19;20151;-74
2022/04/21 05:24:46;;;;;;;22.37;16.40;;;;;4.20;93366.00;;;;7397947;19;20174;-74
2022/04/21 05:27:20;;;;;;;21.07;15.93;;;;;4.50;93364.00;;;;7394697;19;20152;-72
2022/04/21 05:32:41;;;;;;;19.40;15.00;;;;;4.80;93374.00;;;;7394230;19;20120;-72
2022/04/21 05:35:16;;;;;;;17.57;15.57;;;;;4.90;93372.00;;;;7392946;19;20128;-72
2022/04/21 05:37:44;;;;;;;24.00;15.27;;;;;5.10;93371.00;;;;7393752;19;20168;-73
2022/04/21 05:40:17;;;;;;;22.73;15.13;;;;;5.30;93364.00;;;;7391746;19;20145;-72
2022/04/21 05:43:02;;;;;;;16.80;13.93;;;;;5.40;93368.00;;;;7394456;19;20169;-71
2022/04/21 05:45:34;;;;;;;14.57;13.00;;;;;5.50;93369.00;;;;7392586;19;20155;-72
2022/04/21 05:48:09;;;;;;;16.97;13.20;;;;;5.80;93356.00;;;;7395648;19;20139;-72
2022/04/21 05:50:38;;;;;;;14.80;13.40;;;;;5.80;93354.00;;;;7393077;19;20137;-72
2022/04/21 05:53:22;;;;;;;13.63;12.23;;;;;6.00;93359.00;;;;7394279;19;20208;-72
2022/04/21 05:55:59;;;;;;;13.80;12.40;;;;;6.30;93358.00;;;;7394728;19;20161;-72
2022/04/21 05:58:27;;;;;;;13.93;12.33;;;;;6.30;93347.00;;;;7396457;19;20140;-72
2022/04/21 06:00:59;;;;;;;13.00;11.63;;;;;6.70;93352.00;;;;7394826;19;20204;-73
2022/04/21 06:03:41;;;;;;;15.27;12.67;;;;;7.00;93353.00;;;;7394987;19;20205;-72
2022/04/21 06:06:10;;;;;;;12.87;11.57;;;;;7.30;93348.00;;;;7395829;19;20184;-72
2022/04/21 06:08:49;;;;;;;13.20;11.53;;;;;7.40;93353.00;;;;7392487;19;20158;-73
2022/04/21 06:11:24;;;;;;;11.93;10.80;;;;;7.50;93350.00;;;;7394865;19;20141;-73
2022/04/21 06:13:57;;;;;;;12.87;10.70;;;;;7.60;93345.00;;;;7392575;19;20586;-72
2022/04/21 06:16:25;;;;;;;14.90;11.83;;;;;7.50;93338.00;;;;7392092;19;20157;-72
2022/04/21 06:19:15;;;;;;;11.23;10.13;;;;;7.70;93340.00;;;;7392192;19;20169;-73
2022/04/21 06:21:57;;;;;;;12.27;10.90;;;;;7.80;93340.00;;;;7396323;19;20208;-73
2022/04/21 06:24:24;;;;;;;13.77;10.73;;;;;8.00;93343.00;;;;7391675;19;20148;-72
2022/04/21 06:27:05;;;;;;;11.50;10.30;;;;;8.10;93342.00;;;;7395311;19;20148;-72
2022/04/21 06:29:32;;;;;;;12.13;10.43;;;;;8.60;93338.00;;;;7390613;19;20220;-73
2022/04/21 06:32:10;;;;;;;15.87;10.63;;;;;9.00;93331.00;;;;7395579;19;20604;-72
2022/04/21 06:34:38;;;;;;;12.03;10.47;;;;;9.00;93341.00;;;;7394983;19;20159;-72
2022/04/21 06:37:05;;;;;;;12.60;10.57;;;;;9.80;93345.00;;;;7391271;19;20207;-73
2022/04/21 06:39:47;;;;;;;12.13;10.83;;;;;9.90;93352.00;;;;7392893;19;20591;-73
2022/04/21 06:42:15;;;;;;;11.57;9.50;;;;;10.00;93362.00;;;;7395673;19;20140;-71
2022/04/21 06:48:04;;;;;;;13.07;10.30;;;;;10.10;93350.00;;;;7390548;19;20149;-72
2022/04/21 06:50:41;;;;;;;12.90;10.40;;;;;10.50;93349.00;;;;7390817;19;20144;-72
2022/04/21 06:53:10;;;;;;;12.05;10.00;;;;;10.30;93364.00;;;;7389784;19;20486;-72
2022/04/21 06:55:42;;;;;;;10.90;9.67;;;;;10.30;93365.00;;;;7393698;19;20144;-73
2022/04/21 06:58:15;;;;;;;11.77;9.27;;;;;10.40;93361.00;;;;7391345;19;20180;-73
2022/04/21 07:00:45;;;;;;;10.85;9.32;;;;;10.70;93360.00;;;;7393028;19;20663;-73
2022/04/21 07:03:18;;;;;;;12.05;10.23;;;;;11.00;93366.00;;;;7389204;19;20668;-72
2022/04/21 07:05:55;;;;;;;11.93;10.60;;;;;11.20;93364.00;;;;7389968;19;20156;-73
2022/04/21 07:08:23;;;;;;;12.13;10.55;;;;;11.20;93366.00;;;;7389953;19;20137;-72
2022/04/21 07:10:53;;;;;;;12.50;10.90;;;;;11.70;93361.00;;;;7388870;19;20204;-72
2022/04/21 07:13:32;;;;;;;11.13;9.98;;;;;11.90;93360.00;;;;7389871;19;20149;-71
2022/04/21 07:15:59;;;;;;;14.77;10.27;;;;;11.70;93365.00;;;;7393062;19;20129;-72
2022/04/21 07:18:30;;;;;;;12.20;10.55;;;;;12.00;93369.00;;;;7390815;19;20608;-72
2022/04/21 07:21:07;;;;;;;12.30;9.93;;;;;11.90;93368.00;;;;7388964;19;20623;-72
2022/04/21 07:23:36;;;;;;;10.82;9.75;;;;;12.10;93359.00;;;;7388707;19;20156;-73
2022/04/21 07:26:05;;;;;;;22.88;10.05;;;;;12.70;93366.00;;;;7389558;19;20652;-74
2022/04/21 07:28:55;;;;;;;12.35;9.77;;;;;12.80;93368.00;;;;7391308;19;20577;-71
2022/04/21 07:31:27;;;;;;;11.45;9.40;;;;;13.00;93358.00;;;;7390729;19;20505;-72
2022/04/21 07:34:05;;;;;;;15.63;9.88;;;;;13.20;93354.00;;;;7390544;19;20135;-72
2022/04/21 07:36:34;;;;;;;12.48;9.45;;;;;13.60;93359.00;;;;7389828;19;20635;-74
2022/04/21 07:39:12;;;;;;;9.52;8.52;;;;;13.70;93361.00;;;;7391659;19;20134;-75
2022/04/21 07:41:41;;;;;;;9.60;8.70;;;;;13.40;93363.00;;;;7393776;19;20700;-73
2022/04/21 07:44:21;;;;;;;9.73;8.82;;;;;12.80;93362.00;;;;7390212;19;20147;-73
2022/04/21 07:46:49;;;;;;;8.55;7.65;;;;;13.00;93363.00;;;;7389959;19;20615;-74
2022/04/21 07:55:02;;;;;;;10.20;8.23;;;;;13.90;93348.00;;;;7401381;19;20141;-72
2022/04/21 07:57:30;;;;;;;9.43;8.10;;;;;13.80;93351.00;;;;7398435;19;20615;-72
2022/04/21 07:59:58;;;;;;;9.10;8.20;;;;;13.80;93349.00;;;;7400871;19;20480;-73
2022/04/21 08:02:33;;;;;;;13.43;8.15;;;;;14.30;93352.00;;;;7400528;19;20140;-72
2022/04/21 08:05:01;;;;;;;10.50;7.75;;;;;14.30;93351.00;;;;7397043;19;20157;-72
2022/04/21 08:07:30;;;;;;;9.25;8.35;;;;;14.70;93346.00;;;;7401329;19;20128;-72
2022/04/21 08:10:07;;;;;;;8.43;7.63;;;;;15.10;93353.00;;;;7397823;19;20182;-72
2022/04/21 08:12:44;;;;;;;9.07;8.18;;;;;14.90;93353.00;;;;7400855;19;20163;-72
2022/04/21 08:15:28;;;;;;;9.65;7.68;;;;;14.90;93356.00;;;;7397954;19;20149;-72
2022/04/21 08:17:59;;;;;;;12.05;7.20;;;;;15.70;93353.00;;;;7398718;19;20148;-73
2022/04/21 08:20:34;;;;;;;8.30;7.50;;;;;15.50;93347.00;;;;7394085;19;20132;-72
2022/04/21 08:23:10;;;;;;;11.55;7.93;;;;;16.40;93344.00;;;;7393840;19;20516;-73
2022/04/21 08:34:44;;;;;;;7.72;6.68;;;;;15.20;93360.00;;;;7388109;19;20839;-73
2022/04/21 08:37:27;;;;;;;9.68;7.95;;;;;15.90;93371.00;;;;7392694;19;20216;-74
2022/04/21 08:39:58;;;;;;;9.98;7.63;;;;;16.30;93360.00;;;;7391952;19;20160;-73
2022/04/21 08:42:35;;;;;;;8.90;7.65;;;;;16.60;93364.00;;;;7383057;19;20232;-74
2022/04/21 08:45:13;;;;;;;9.77;7.82;;;;;16.80;93370.00;;;;7389238;19;20133;-72
2022/04/21 08:47:49;;;;;;;7.60;6.75;;;;;16.70;93373.00;;;;7387709;19;20156;-73
2022/04/21 08:50:17;;;;;;;10.25;7.28;;;;;16.90;93368.00;;;;7392985;19;20216;-75
2022/04/21 08:52:45;;;;;;;8.52;7.50;;;;;17.30;93367.00;;;;7392770;19;20148;-74
2022/04/21 08:55:19;;;;;;;10.93;7.72;;;;;17.40;93366.00;;;;7392029;19;20164;-73
2022/04/21 08:57:47;;;;;;;9.38;7.57;;;;;17.80;93363.00;;;;7386894;19;20164;-74
2022/04/21 09:00:15;;;;;;;12.32;7.88;;;;;18.00;93372.00;;;;7388448;19;20152;-74
2022/04/21 09:03:03;;;;;;;9.73;8.35;;;;;17.80;93368.00;;;;7387183;19;20155;-74
2022/04/21 09:05:33;;;;;;;8.27;7.47;;;;;17.80;93364.00;;;;7390224;19;20152;-77
2022/04/21 09:08:19;;;;;;;9.60;8.05;;;;;18.30;93363.00;;;;7390003;19;20805;-73
2022/04/21 09:11:23;;;;;;;9.80;8.85;;;;;18.00;93370.00;;;;7394369;19;20172;-73
2022/04/21 09:14:03;;;;;;;9.40;8.43;;;;;18.00;93369.00;;;;7395270;19;20746;-73
2022/04/21 09:16:35;;;;;;;8.55;7.68;;;;;17.70;93373.00;;;;7394383;19;20631;-74
2022/04/21 09:19:14;;;;;;;9.30;8.32;;;;;18.70;93373.00;;;;7394143;19;20496;-72
2022/04/21 09:21:42;;;;;;;10.75;8.13;;;;;18.60;93362.00;;;;7396257;19;20148;-75
2022/04/21 09:24:23;;;;;;;10.23;8.68;;;;;18.80;93366.00;;;;7396499;19;20132;-74
2022/04/21 09:27:06;;;;;;;9.90;8.30;;;;;18.40;93367.00;;;;7391153;19;20160;-72
2022/04/21 09:29:38;;;;;;;10.70;7.95;;;;;18.90;93366.00;;;;7393044;19;20156;-74
2022/04/21 09:32:17;;;;;;;13.10;8.00;;;;;18.80;93363.00;;;;7394590;19;20524;-72
2022/04/21 09:34:50;;;;;;;9.85;8.90;;;;;18.40;93361.00;;;;7393462;19;20145;-71
2022/04/21 09:37:24;;;;;;;8.88;7.78;;;;;19.80;93347.00;;;;7394517;19;20187;-72
2022/04/21 09:39:53;;;;;;;8.45;7.00;;;;;19.20;93349.00;;;;7394439;19;20163;-74
2022/04/21 09:42:32;;;;;;;8.68;7.78;;;;;18.50;93353.00;;;;7395298;19;20636;-74
2022/04/21 09:48:00;;;;;;;8.90;8.02;;;;;19.70;93359.00;;;;7395675;19;20619;-73
2022/04/21 09:50:39;;;;;;;8.32;6.50;;;;;18.80;93357.00;;;;7390693;19;20144;-74
2022/04/21 09:53:06;;;;;;;8.40;7.40;;;;;17.10;93360.00;;;;7391578;19;20128;-75
2022/04/21 09:55:34;;;;;;;9.98;7.38;;;;;16.60;93359.00;;;;7393450;19;20157;-73
2022/04/21 09:58:10;;;;;;;8.82;6.93;;;;;16.30;93348.00;;;;7389297;19;20136;-73
2022/04/21 10:00:39;;;;;;;8.05;7.25;;;;;16.80;93343.00;;;;7392146;19;20148;-74
2022/04/21 10:03:08;;;;;;;11.13;7.70;;;;;17.60;93338.00;;;;7392391;19;20129;-72
2022/04/21 10:05:42;;;;;;;11.02;7.40;;;;;18.30;93331.00;;;;7394290;19;20152;-73
2022/04/21 10:08:17;;;;;;;9.05;8.10;;;;;18.00;93327.00;;;;7391527;19;20591;-75
2022/04/21 10:10:53;;;;;;;8.95;8.05;;;;;18.70;93329.00;;;;7390338;19;20172;-75
2022/04/21 10:13:22;;;;;;;9.23;7.65;;;;;19.00;93321.00;;;;7386245;19;20195;-74
2022/04/21 10:16:11;;;;;;;10.10;7.68;;;;;19.00;93331.00;;;;7385967;19;20136;-74
2022/04/21 10:18:52;;;;;;;8.30;7.32;;;;;19.00;93323.00;;;;7388664;19;20152;-76
2022/04/21 10:21:52;;;;;;;14.18;8.02;;;;;19.20;93321.00;;;;7387250;19;20148;-74
2022/04/21 10:24:29;;;;;;;8.77;7.80;;;;;19.20;93324.00;;;;7387385;19;20162;-74
2022/04/21 10:27:07;;;;;;;8.98;8.02;;;;;19.60;93320.00;;;;7386685;19;20176;-74
2022/04/21 10:29:55;;;;;;;8.65;7.47;;;;;20.30;93315.00;;;;7385229;19;20152;-74
2022/04/21 10:32:47;;;;;;;12.90;8.55;;;;;20.00;93309.00;;;;7385849;19;20140;-74
2022/04/21 10:35:46;;;;;;;12.18;7.97;;;;;19.50;93304.00;;;;7386887;19;20156;-73
2022/04/21 10:38:22;;;;;;;7.53;6.80;;;;;19.80;93303.00;;;;7384735;19;20232;-74
2022/04/21 10:41:07;;;;;;;8.75;7.95;;;;;19.90;93300.00;;;;7388396;19;20168;-75
2022/04/21 10:43:50;;;;;;;9.13;7.78;;;;;18.80;93294.00;;;;7386143;19;20196;-75
2022/04/21 10:46:32;;;;;;;9.13;8.18;;;;;18.90;93289.00;;;;7385761;19;20214;-75
2022/04/21 10:49:05;;;;;;;11.32;7.65;;;;;19.60;93292.00;;;;7387094;19;20148;-74
2022/04/21 10:57:39;;;;;;;10.48;9.38;;;;;20.00;93295.00;;;;7390802;19;20176;-75
2022/04/21 11:00:29;;;;;;;9.75;8.85;;;;;20.10;93282.00;;;;7394955;19;20154;-73
2022/04/21 11:03:10;;;;;;;11.20;8.90;;;;;20.90;93287.00;;;;7393896;19;20145;-75
2022/04/21 11:05:43;;;;;;;9.70;8.10;;;;;21.10;93288.00;;;;7390749;19;20152;-73
2022/04/21 11:08:31;;;;;;;8.27;7.47;;;;;21.50;93282.00;;;;7388279;19;20184;-75
2022/04/21 11:10:59;;;;;;;9.88;8.88;;;;;21.60;93277.00;;;;7386296;19;20733;-74
2022/04/21 11:13:59;;;;;;;9.30;8.40;;;;;21.70;93270.00;;;;7390503;19;20598;-73
2022/04/21 11:16:47;;;;;;;8.98;8.13;;;;;22.40;93268.00;;;;7388044;19;20212;-74
2022/04/21 11:19:53;;;;;;;10.27;7.40;;;;;22.20;93269.00;;;;7391930;19;20160;-76
2022/04/21 11:22:41;;;;;;;15.77;7.72;;;;;22.90;93262.00;;;;7392612;19;20139;-73
2022/04/21 11:25:25;;;;;;;10.27;7.30;;;;;22.40;93257.00;;;;7389356;19;20136;-75
2022/04/21 11:28:00;;;;;;;8.38;7.63;;;;;21.70;93282.00;;;;7395783;19;20167;-73
2022/04/21 11:30:34;;;;;;;7.60;6.90;;;;;20.10;93263.00;;;;7395029;19;20159;-73
2022/04/21 11:33:11;;;;;;;7.55;6.80;;;;;21.40;93260.00;;;;7389732;19;20559;-74
2022/04/21 11:35:48;;;;;;;8.23;7.25;;;;;22.20;93246.00;;;;7389474;19;20633;-73
2022/04/21 11:38:15;;;;;;;7.90;7.18;;;;;22.20;93260.00;;;;7392547;19;20638;-73
2022/04/21 11:40:44;;;;;;;7.32;6.68;;;;;22.30;93251.00;;;;7394706;19;20613;-75
2022/04/21 11:43:18;;;;;;;6.95;6.35;;;;;21.30;93251.00;;;;7395827;19;20140;-73
2022/04/21 11:46:00;;;;;;;6.80;6.13;;;;;22.60;93247.00;;;;7393282;19;20144;-75
2022/04/21 11:48:37;;;;;;;9.60;6.03;;;;;22.90;93236.00;;;;7393905;19;20607;-75
2022/04/21 11:51:06;;;;;;;7.40;6.38;;;;;23.80;93242.00;;;;7393999;19;20147;-75
2022/04/21 11:53:40;;;;;;;8.10;6.80;;;;;22.80;93239.00;;;;7395375;19;20148;-74
2022/04/21 11:56:16;;;;;;;8.23;7.40;;;;;22.00;93240.00;;;;7393421;19;20144;-74
2022/04/21 11:58:45;;;;;;;7.72;7.03;;;;;21.20;93266.00;;;;7393135;19;20240;-74
2022/04/21 12:06:58;;;;;;;6.70;6.10;;;;;21.80;93255.00;;;;7392830;19;20136;-75
2022/04/21 12:09:40;;;;;;;7.25;6.55;;;;;20.00;93245.00;;;;7391980;19;20183;-73
2022/04/21 12:12:26;;;;;;;7.28;6.57;;;;;20.30;93238.00;;;;7391360;19;20183;-75
2022/04/21 12:15:03;;;;;;;7.50;5.50;;;;;21.10;93237.00;;;;7391563;19;20140;-75
2022/04/21 12:17:33;;;;;;;6.85;6.15;;;;;21.10;93236.00;;;;7390000;19;20165;-74
2022/04/21 12:20:08;;;;;;;6.55;5.95;;;;;21.90;93216.00;;;;7392697;19;20156;-73
2022/04/21 12:22:39;;;;;;;6.13;4.90;;;;;22.00;93221.00;;;;7389585;19;20156;-75
2022/04/21 12:25:27;;;;;;;6.40;5.00;;;;;21.00;93230.00;;;;7390632;19;20137;-74
2022/04/21 12:28:15;;;;;;;4.97;4.47;;;;;21.80;93218.00;;;;7390912;19;20151;-73
2022/04/21 12:30:45;;;;;;;5.10;4.53;;;;;23.10;93209.00;;;;7387546;19;20141;-74
2022/04/21 12:33:20;;;;;;;6.35;4.75;;;;;23.40;93222.00;;;;7389350;19;20151;-75
2022/04/21 12:35:51;;;;;;;5.03;4.38;;;;;21.70;93218.00;;;;7389323;19;20830;-74
2022/04/21 12:41:11;;;;;;;4.82;4.43;;;;;21.60;93222.00;;;;7390675;19;20156;-74
2022/04/21 12:43:38;;;;;;;6.30;4.75;;;;;21.80;93221.00;;;;7386643;19;20147;-72
2022/04/21 12:46:06;;;;;;;5.63;5.07;;;;;22.30;93232.00;;;;7395802;19;20144;-75
2022/04/21 12:48:50;;;;;;;6.43;4.38;;;;;22.40;93221.00;;;;7395636;19;20179;-73
2022/04/21 12:51:19;;;;;;;6.68;3.85;;;;;23.00;93213.00;;;;7398757;19;20137;-75
2022/04/21 12:53:58;;;;;;;4.53;4.05;;;;;23.80;93199.00;;;;7395305;19;20148;-72
2022/04/21 12:56:36;;;;;;;4.45;3.92;;;;;21.60;93215.00;;;;7394561;19;20133;-73
2022/04/21 12:59:10;;;;;;;4.70;3.95;;;;;20.30;93236.00;;;;7397110;19;20133;-76
2022/04/21 13:01:38;;;;;;;5.57;3.80;;;;;19.80;93230.00;;;;7395081;19;20161;-74
2022/04/21 13:04:05;;;;;;;3.63;3.33;;;;;19.10;93219.00;;;;7395524;19;20190;-74
2022/04/21 13:06:42;;;;;;;4.32;3.28;;;;;19.90;93204.00;;;;7399226;19;20825;-75
2022/04/21 13:09:10;;;;;;;3.50;3.20;;;;;20.60;93192.00;;;;7393803;19;20184;-72
2022/04/21 13:11:38;;;;;;;3.85;3.05;;;;;21.60;93194.00;;;;7399673;19;20133;-72
2022/04/21 13:14:17;;;;;;;3.58;3.22;;;;;21.40;93187.00;;;;7396505;19;20136;-73
2022/04/21 13:16:45;;;;;;;3.70;3.17;;;;;21.20;93192.00;;;;7395698;19;20156;-75
2022/04/21 13:19:18;;;;;;;3.28;2.97;;;;;21.20;93180.00;;;;7394575;19;20153;-73
2022/04/21 13:22:03;;;;;;;4.35;3.20;;;;;22.20;93179.00;;;;7393308;19;20249;-73
2022/04/21 13:24:37;;;;;;;3.60;2.90;;;;;22.90;93175.00;;;;7391804;19;20488;-74
2022/04/21 13:27:11;;;;;;;3.10;2.78;;;;;23.10;93186.00;;;;7393305;19;20176;-74
2022/04/21 13:29:45;;;;;;;3.05;2.45;;;;;22.30;93198.00;;;;7395292;19;20158;-73
2022/04/21 13:35:06;;;;;;;2.70;2.50;;;;;19.80;93179.00;;;;7396914;19;20594;-72
2022/04/21 13:37:34;;;;;;;2.95;2.67;;;;;20.90;93184.00;;;;7391878;19;20188;-72
2022/04/21 13:40:02;;;;;;;3.65;2.63;;;;;21.80;93166.00;;;;7394266;19;20502;-73
2022/04/21 13:42:36;;;;;;;2.92;2.50;;;;;21.10;93198.00;;;;7395071;19;20137;-73
2022/04/21 13:45:04;;;;;;;5.18;2.70;;;;;19.50;93197.00;;;;7393702;19;20607;-74